Terminal Aerodrome Forecast
Issued by NWS North Platte, NE

Home | Current Version | Previous Version | Text Only | Print | Product List | Glossary Off
Versions: 1 2 3 4 5 6 7 8 9 10 11 12 13 14 15 16 17 18

000
FTUS43 KLBF 282238 AAA
TAFVTN
TAF AMD
KVTN 282238Z 2823/2918 VRB06KT P6SM VCSH SCT050 BKN120
      TEMPO 2901/2903 VRB12G23KT 6SM -TSRA BKN050CB BKN120
     FM290300 VRB04KT P6SM SCT050 SCT100 BKN250
     FM290800 VRB03KT 2SM BR BKN015
     FM291400 13005KT P6SM FEW015 SCT050 BKN100
     FM291700 16010KT P6SM BKN050=

USA.gov is the U.S. government's official web portal to all federal, state and local government web resources and services.